Аэропорт: Казань. Казань

ICAO: UWKD

METAR:
2020-06-04 05:00:00
UWKD 040500Z 10007G12MPS 9999 -SHRA BKN050CB 16/08 Q1012 R11/CLRD70 NOSIG RMK QFE749/0999
METAR:
2020-06-04 02:00:00
TAF UWKD 040200Z 0403/0503 09005G12MPS 9999 BKN016 TX19/0412Z TN13/0501Z TEMPO 0403/0409 09008G15MPS 3100 -SHRA FEW006 BKN011CB TEMPO 0409/0421 3100 -SHRA BKN011 BKN020CB BECMG 0415/0417 15005MPS